Item Display Status Humidity-temperature Sensor

Elevation Above Sea Level: 3 m

 

Deployed Sensor

  • Serial Number: 20282688
  • NDBC Property Number: 42577
  • Start Date: 6/19/2020 (13:32:20 Z)
  • End Date: Currently Active
Relative Humidity [%]     6 entries per hour
Showing data from 6/28/2022 (06:00:00 Z) to 6/27/2022 (00:00:01 Z)
Previous Next [ Day | 3-Days | 7-Days ]
First Last
Prev [ Day | 3-Days | 7-Days ] Next
First Last

Start Time:     :
End Time:     :     
Time (in GMT) :00 :50 :40 :30 :20 :10
Previous Next [ Day | 3-Days | 7-Days ]
First Last
Prev [ Day | 3-Days | 7-Days ] Next
First Last


123 => good data
MM => data is determined as missing
-- => data not received/configured
Back to Top Back to Top
6/28/2022 06:00 to 5:10 76.74 76.56 76.35 76.52 75.59 76.25
6/28/2022 05:00 to 4:10 73.98 73.49 74.52 75.11 74.58 74.39
6/28/2022 04:00 to 3:10 75.51 75.34 76.12 76.27 75.88 75.57
6/28/2022 03:00 to 2:10 75.98 76.12 75.82 75.61 73.76 73.71
6/28/2022 02:00 to 1:10 74.77 75.07 74.83 74.95 74.10 74.44
6/28/2022 01:00 to 0:10 74.35 74.70 74.48 74.48 74.27 74.27
6/28/2022 00:00 to 23:10 -- -- -- -- -- --
6/27/2022 23:00 to 22:10 71.57 69.73 70.70 69.08 67.67 66.33
6/27/2022 22:00 to 21:10 65.90 65.74 66.27 67.61 69.76 69.20
6/27/2022 21:00 to 20:10 70.13 70.73 68.85 68.62 69.90 68.11
6/27/2022 20:00 to 19:10 68.97 68.23 67.63 68.62 69.73 69.96
6/27/2022 19:00 to 18:10 70.56 70.79 69.32 67.88 69.82 71.53
6/27/2022 18:00 to 17:10 71.90 72.75 72.39 73.26 75.34 74.44
6/27/2022 17:00 to 16:10 74.74 74.58 73.40 71.96 75.92 78.06
6/27/2022 16:00 to 15:10 77.44 76.60 75.45 75.98 76.29 76.15
6/27/2022 15:00 to 14:10 75.82 75.49 76.17 76.87 75.69 75.78
6/27/2022 14:00 to 13:10 76.62 77.14 76.66 76.17 75.77 76.39
6/27/2022 13:00 to 12:10 77.26 76.72 76.17 77.47 75.84 77.13
6/27/2022 12:00 to 11:10 76.56 74.77 74.31 73.80 74.10 74.39
6/27/2022 11:00 to 10:10 74.25 75.30 77.47 77.67 76.66 78.97
6/27/2022 10:00 to 9:10 78.06 78.04 77.38 77.26 76.91 77.09
6/27/2022 09:00 to 8:10 77.16 77.01 76.12 77.13 77.34 76.54
6/27/2022 08:00 to 7:10 75.86 75.49 76.52 75.65 75.78 75.30
6/27/2022 07:00 to 6:10 74.89 73.84 73.98 74.21 72.75 72.70
6/27/2022 06:00 to 5:10 72.04 71.40 71.28 71.07 70.97 70.83
6/27/2022 05:00 to 4:10 71.67 70.50 69.14 71.82 72.95 74.56
6/27/2022 04:00 to 3:10 73.22 71.43 71.82 72.56 75.30 73.14
6/27/2022 03:00 to 2:10 73.69 74.44 74.48 72.23 73.61 76.31
6/27/2022 02:00 to 1:10 75.78 76.43 76.68 75.53 73.92 71.36
6/27/2022 01:00 to 0:10 75.90 75.07 74.43 76.17 77.38 78.70

 

 

 

Air Temperature [°C]     6 entries per hour
Showing data from 6/28/2022 (06:00:00 Z) to 6/27/2022 (00:00:01 Z)
Previous Next [ Day | 3-Days | 7-Days ]
First Last
Prev [ Day | 3-Days | 7-Days ] Next
First Last

Start Time:     :
End Time:     :     
Time (in GMT) :00 :50 :40 :30 :20 :10
Previous Next [ Day | 3-Days | 7-Days ]
First Last
Prev [ Day | 3-Days | 7-Days ] Next
First Last


123 => good data
MM => data is determined as missing
-- => data not received/configured
Back to Top Back to Top
6/28/2022 06:00 to 5:10 28.50 28.34 28.47 28.61 28.55 28.66
6/28/2022 05:00 to 4:10 28.65 28.62 28.55 28.54 28.56 28.59
6/28/2022 04:00 to 3:10 28.66 28.54 28.70 28.61 28.50 28.46
6/28/2022 03:00 to 2:10 28.47 28.50 28.58 28.60 28.49 28.46
6/28/2022 02:00 to 1:10 28.35 28.38 28.44 28.46 28.36 28.49
6/28/2022 01:00 to 0:10 28.43 28.37 28.29 28.33 28.35 28.33
6/28/2022 00:00 to 23:10 -- -- -- -- -- --
6/27/2022 23:00 to 22:10 28.52 28.38 28.51 28.43 28.48 28.44
6/27/2022 22:00 to 21:10 28.52 28.54 28.48 28.62 28.55 28.48
6/27/2022 21:00 to 20:10 28.48 28.53 28.48 28.43 28.49 28.46
6/27/2022 20:00 to 19:10 28.42 28.46 28.46 28.44 28.41 28.29
6/27/2022 19:00 to 18:10 28.46 28.39 28.34 28.24 28.09 28.09
6/27/2022 18:00 to 17:10 28.07 28.14 28.23 28.08 28.19 28.15
6/27/2022 17:00 to 16:10 28.14 28.08 28.25 28.21 27.95 28.21
6/27/2022 16:00 to 15:10 28.12 28.22 28.13 28.19 28.09 28.36
6/27/2022 15:00 to 14:10 28.20 28.23 28.23 28.26 28.17 28.23
6/27/2022 14:00 to 13:10 28.17 28.24 28.34 28.45 28.29 28.19
6/27/2022 13:00 to 12:10 28.29 28.16 28.42 28.49 28.34 28.25
6/27/2022 12:00 to 11:10 28.34 28.38 28.33 28.44 28.44 28.43
6/27/2022 11:00 to 10:10 28.54 28.50 28.38 28.51 28.36 28.56
6/27/2022 10:00 to 9:10 28.55 28.51 28.39 28.41 28.38 28.39
6/27/2022 09:00 to 8:10 28.39 28.37 28.31 28.29 28.35 28.30
6/27/2022 08:00 to 7:10 28.28 28.27 28.46 28.29 28.37 28.34
6/27/2022 07:00 to 6:10 28.37 28.29 28.36 28.31 28.39 28.43
6/27/2022 06:00 to 5:10 28.52 28.48 28.61 28.60 28.70 28.62
6/27/2022 05:00 to 4:10 28.76 28.86 28.78 28.63 28.66 28.58
6/27/2022 04:00 to 3:10 28.64 28.73 28.62 28.82 28.72 28.59
6/27/2022 03:00 to 2:10 28.61 28.63 28.63 28.71 28.58 28.46
6/27/2022 02:00 to 1:10 28.54 28.67 28.76 28.58 28.77 28.65
6/27/2022 01:00 to 0:10 28.53 28.71 28.71 28.61 28.62 28.73